Time;durP1;ratioP1;P1;durP2;ratioP2;P2;SDS_P1;SDS_P2;PMS_P1;PMS_P2;Temp;Humidity;BMP_temperature;BMP_pressure;BME280_temperature;BME280_humidity;BME280_pressure;Samples;Min_cycle;Max_cycle;Signal;HPM_P1;HPM_P2
2023/12/09 00:01:42;;;;;;;41.53;27.93;;;;;;;3.33;100.00;99960.53;5053694;28;20240;-63
2023/12/09 00:04:08;;;;;;;42.80;28.27;;;;;;;3.24;100.00;99964.16;5066421;28;20179;-64
2023/12/09 00:06:34;;;;;;;38.17;26.63;;;;;;;3.32;100.00;99966.50;5051182;28;20192;-63
2023/12/09 00:08:59;;;;;;;38.73;27.27;;;;;;;3.20;100.00;99958.31;5051918;28;20184;-64
2023/12/09 00:11:24;;;;;;;42.83;28.70;;;;;;;3.24;100.00;99961.63;5052157;28;20287;-64
2023/12/09 00:13:51;;;;;;;46.30;27.90;;;;;;;3.13;100.00;99951.72;5064709;28;20650;-64
2023/12/09 00:16:18;;;;;;;42.00;28.40;;;;;;;3.21;100.00;99961.69;5056495;28;20185;-64
2023/12/09 00:18:44;;;;;;;42.40;29.17;;;;;;;3.09;100.00;99970.47;5051096;28;20647;-63
2023/12/09 00:21:09;;;;;;;41.97;28.50;;;;;;;3.07;100.00;99970.50;5048364;28;20307;-63
2023/12/09 00:23:34;;;;;;;42.07;28.57;;;;;;;3.01;100.00;99969.81;5050958;28;20698;-64
2023/12/09 00:26:00;;;;;;;40.03;28.10;;;;;;;3.06;100.00;99968.84;5052534;28;20252;-63
2023/12/09 00:28:26;;;;;;;44.60;28.43;;;;;;;2.94;100.00;99963.22;5051062;28;20182;-64
2023/12/09 00:30:51;;;;;;;39.40;27.40;;;;;;;2.71;100.00;99968.00;5027528;28;20246;-64
2023/12/09 00:33:16;;;;;;;42.00;28.90;;;;;;;2.79;100.00;99967.84;5060930;28;20186;-64
2023/12/09 00:35:42;;;;;;;41.80;27.63;;;;;;;2.88;100.00;99970.13;5052145;28;20190;-65
2023/12/09 00:38:07;;;;;;;39.67;28.27;;;;;;;3.06;100.00;99971.38;5051292;28;20718;-63
2023/12/09 00:40:32;;;;;;;42.53;28.83;;;;;;;3.15;100.00;99977.09;5044710;28;20359;-64
2023/12/09 00:42:58;;;;;;;37.87;27.73;;;;;;;2.78;100.00;99978.00;5051404;28;20190;-64
2023/12/09 00:45:27;;;;;;;43.70;28.07;;;;;;;2.63;100.00;99982.59;5055988;28;20652;-64
2023/12/09 00:47:52;;;;;;;40.70;29.07;;;;;;;2.90;100.00;99987.88;5054883;28;20229;-64
2023/12/09 00:50:17;;;;;;;42.70;28.83;;;;;;;3.01;100.00;99988.44;5045322;28;20213;-64
2023/12/09 00:52:43;;;;;;;42.20;29.57;;;;;;;2.99;100.00;99991.88;5068169;28;20186;-64
2023/12/09 00:55:08;;;;;;;43.47;29.60;;;;;;;3.02;100.00;99979.13;5059957;28;20185;-64
2023/12/09 00:57:33;;;;;;;48.70;30.03;;;;;;;2.83;100.00;99986.34;5060813;28;20187;-64
2023/12/09 00:59:58;;;;;;;46.83;30.43;;;;;;;2.95;100.00;99992.84;5074375;28;20219;-64
2023/12/09 01:02:25;;;;;;;43.03;31.77;;;;;;;3.04;100.00;99985.84;5078815;28;20236;-64
2023/12/09 01:04:50;;;;;;;47.03;30.90;;;;;;;3.10;100.00;99984.00;5051135;28;20215;-64
2023/12/09 01:07:15;;;;;;;46.73;29.73;;;;;;;3.10;100.00;99986.53;5071965;28;20601;-64
2023/12/09 01:09:41;;;;;;;48.73;31.27;;;;;;;3.26;100.00;100002.25;5073846;28;20182;-64
2023/12/09 01:12:06;;;;;;;45.20;29.60;;;;;;;3.41;100.00;99999.28;5078090;28;20342;-64
2023/12/09 01:14:31;;;;;;;46.23;30.60;;;;;;;3.27;100.00;99988.66;5073984;28;20548;-63
2023/12/09 01:16:56;;;;;;;50.53;29.40;;;;;;;3.17;100.00;99986.34;5072664;28;20217;-64
2023/12/09 01:19:22;;;;;;;44.67;31.13;;;;;;;3.29;100.00;99990.28;5073529;28;20229;-64
2023/12/09 01:21:47;;;;;;;48.33;30.43;;;;;;;3.42;100.00;99998.41;5075202;28;20219;-64
2023/12/09 01:24:12;;;;;;;43.33;30.00;;;;;;;3.08;100.00;99996.75;5075414;28;20238;-64
2023/12/09 01:26:38;;;;;;;44.93;31.63;;;;;;;3.13;100.00;99994.94;5072025;28;20268;-64
2023/12/09 01:29:03;;;;;;;47.43;31.63;;;;;;;3.20;100.00;100008.31;5073573;28;20180;-65
2023/12/09 01:31:30;;;;;;;46.53;31.07;;;;;;;3.25;100.00;100006.50;5072572;28;20251;-64
2023/12/09 01:33:55;;;;;;;46.13;28.33;;;;;;;3.34;100.00;100010.50;5077678;28;20192;-64
2023/12/09 01:36:20;;;;;;;50.47;30.63;;;;;;;3.11;100.00;100014.47;5072092;28;20173;-63
2023/12/09 01:38:45;;;;;;;47.20;30.20;;;;;;;3.00;100.00;100016.44;5072703;28;20195;-63
2023/12/09 01:41:11;;;;;;;49.57;30.63;;;;;;;2.90;100.00;100016.69;5070427;28;20219;-63
2023/12/09 01:43:36;;;;;;;43.93;29.40;;;;;;;2.89;100.00;100009.06;5076573;28;20196;-64
2023/12/09 01:46:06;;;;;;;44.17;30.57;;;;;;;3.09;100.00;100010.28;5071704;28;20184;-64
2023/12/09 01:48:32;;;;;;;56.27;32.90;;;;;;;3.20;100.00;100013.38;5072124;28;20336;-63
2023/12/09 01:50:58;;;;;;;45.57;30.73;;;;;;;2.85;100.00;100000.72;5063533;28;20212;-63
2023/12/09 01:53:23;;;;;;;53.97;32.57;;;;;;;2.68;100.00;99996.03;5052308;28;20192;-64
2023/12/09 01:55:48;;;;;;;43.93;28.83;;;;;;;2.53;100.00;99997.22;5053110;28;20181;-63
2023/12/09 01:58:17;;;;;;;41.03;27.83;;;;;;;2.66;100.00;99997.75;5067010;28;20181;-64
2023/12/09 02:00:42;;;;;;;39.77;26.47;;;;;;;2.73;100.00;99994.22;5045723;28;20228;-63
2023/12/09 02:03:08;;;;;;;45.67;30.47;;;;;;;2.85;100.00;99988.00;5070005;28;20204;-63
2023/12/09 02:05:33;;;;;;;48.63;31.10;;;;;;;2.93;100.00;99985.28;5060948;28;20169;-64
2023/12/09 02:07:58;;;;;;;48.77;30.60;;;;;;;3.02;100.00;99976.59;5059368;28;20177;-63
2023/12/09 02:10:24;;;;;;;48.67;29.13;;;;;;;3.04;100.00;99979.94;5059221;28;20227;-64
2023/12/09 02:13:00;;;;;;;43.77;30.07;;;;;;;3.11;100.00;99972.97;5084998;28;20188;-64
2023/12/09 02:15:34;;;;;;;47.20;29.43;;;;;;;3.05;100.00;99979.03;5073082;28;20188;-63
2023/12/09 02:18:05;;;;;;;53.70;31.93;;;;;;;3.27;100.00;99968.31;5071529;28;20308;-63
2023/12/09 02:20:31;;;;;;;43.07;29.03;;;;;;;3.12;100.00;99965.28;5065756;28;20258;-63
2023/12/09 02:23:06;;;;;;;50.13;30.33;;;;;;;3.31;100.00;99967.34;5084587;28;20249;-63
2023/12/09 02:25:31;;;;;;;47.87;30.17;;;;;;;3.42;100.00;99957.72;5067556;28;20196;-63
2023/12/09 02:27:59;;;;;;;47.70;30.20;;;;;;;3.20;100.00;99958.31;5053071;28;20645;-62
2023/12/09 02:30:34;;;;;;;46.57;31.33;;;;;;;3.34;100.00;99957.94;5046280;28;20658;-63
2023/12/09 02:33:00;;;;;;;45.97;30.30;;;;;;;3.48;100.00;99951.66;5064533;28;20626;-63
2023/12/09 02:35:28;;;;;;;45.43;29.93;;;;;;;3.45;100.00;99946.63;5053192;28;20523;-63
2023/12/09 02:37:55;;;;;;;50.03;31.30;;;;;;;3.50;100.00;99947.38;5051643;28;20197;-63
2023/12/09 02:40:22;;;;;;;47.90;30.40;;;;;;;3.53;100.00;99940.47;5045420;28;20175;-63
2023/12/09 02:42:49;;;;;;;48.13;29.73;;;;;;;3.33;100.00;99930.84;5065510;28;20207;-63
2023/12/09 02:45:18;;;;;;;46.80;31.80;;;;;;;3.28;100.00;99908.97;5052772;28;20178;-63
2023/12/09 02:47:46;;;;;;;44.90;28.77;;;;;;;3.07;100.00;99903.59;5071803;28;20186;-63
2023/12/09 02:50:11;;;;;;;49.17;30.50;;;;;;;3.01;100.00;99902.03;5061988;28;20241;-64
2023/12/09 02:52:36;;;;;;;50.13;32.03;;;;;;;3.02;100.00;99892.72;5073510;28;20227;-64
2023/12/09 02:55:02;;;;;;;47.03;30.27;;;;;;;3.01;100.00;99891.06;5061468;28;20639;-64
2023/12/09 02:57:27;;;;;;;48.07;30.67;;;;;;;3.00;100.00;99892.78;5052153;28;20182;-63
2023/12/09 02:59:52;;;;;;;47.20;30.90;;;;;;;3.17;100.00;99894.00;5053003;28;20182;-64
2023/12/09 03:02:17;;;;;;;54.53;32.20;;;;;;;3.22;100.00;99894.72;5057468;28;20239;-63
2023/12/09 03:04:43;;;;;;;49.40;30.70;;;;;;;3.33;100.00;99896.97;5052062;28;20185;-64
2023/12/09 03:07:08;;;;;;;42.73;29.63;;;;;;;3.37;100.00;99901.09;5052269;28;20223;-63
2023/12/09 03:09:33;;;;;;;45.10;29.60;;;;;;;3.39;100.00;99904.44;5053045;28;20190;-63
2023/12/09 03:11:58;;;;;;;42.87;27.73;;;;;;;3.07;100.00;99903.59;5057666;28;20242;-63
2023/12/09 03:14:24;;;;;;;45.03;30.13;;;;;;;3.18;100.00;99899.06;5053707;28;20185;-64
2023/12/09 03:16:49;;;;;;;43.43;29.80;;;;;;;3.14;100.00;99899.16;5053257;28;20169;-64
2023/12/09 03:19:14;;;;;;;48.73;32.30;;;;;;;3.13;100.00;99912.78;5052922;28;20751;-64
2023/12/09 03:21:40;;;;;;;45.10;29.77;;;;;;;3.20;100.00;99916.78;5055039;28;20220;-64
2023/12/09 03:24:05;;;;;;;42.07;29.40;;;;;;;3.17;100.00;99916.91;5055959;28;20181;-63
2023/12/09 03:26:31;;;;;;;49.67;30.87;;;;;;;3.01;100.00;99921.53;5052022;28;20543;-63
2023/12/09 03:28:56;;;;;;;46.13;29.60;;;;;;;2.84;100.00;99922.81;5052261;28;20189;-64
2023/12/09 03:31:22;;;;;;;47.27;31.23;;;;;;;2.93;100.00;99929.38;5052217;28;20760;-64
2023/12/09 03:33:47;;;;;;;47.67;31.83;;;;;;;3.01;100.00;99924.09;5057711;28;20207;-64
2023/12/09 03:36:15;;;;;;;48.93;30.13;;;;;;;2.96;100.00;99933.53;5053147;28;20177;-64
2023/12/09 03:38:41;;;;;;;48.00;30.50;;;;;;;2.90;100.00;99935.38;5051761;28;20664;-65
2023/12/09 03:41:07;;;;;;;47.77;30.17;;;;;;;2.95;100.00;99925.06;5050533;28;20659;-64
2023/12/09 03:43:33;;;;;;;50.63;32.27;;;;;;;2.96;100.00;99921.66;5058882;28;20194;-64
2023/12/09 03:45:59;;;;;;;46.57;30.37;;;;;;;3.00;100.00;99924.94;5056264;28;20173;-64
2023/12/09 03:48:28;;;;;;;48.60;31.73;;;;;;;3.09;100.00;99928.97;5066329;28;20184;-64
2023/12/09 03:50:54;;;;;;;49.33;32.10;;;;;;;3.11;100.00;99919.59;5057780;28;20217;-63
2023/12/09 03:53:19;;;;;;;43.13;29.90;;;;;;;2.91;100.00;99915.88;5060608;28;20254;-64
2023/12/09 03:55:45;;;;;;;49.37;31.23;;;;;;;2.77;100.00;99910.28;5051762;28;20739;-63
2023/12/09 03:58:10;;;;;;;47.47;32.70;;;;;;;2.74;100.00;99911.19;5051370;28;20184;-63
2023/12/09 04:00:36;;;;;;;44.43;29.27;;;;;;;2.70;100.00;99907.91;5058946;28;20222;-63
2023/12/09 04:03:02;;;;;;;49.80;31.63;;;;;;;2.65;100.00;99906.38;5062857;28;20200;-64
2023/12/09 04:05:27;;;;;;;48.90;31.03;;;;;;;2.99;100.00;99908.03;5045514;28;20204;-63
2023/12/09 04:07:53;;;;;;;46.93;29.60;;;;;;;3.13;100.00;99910.22;5051179;28;20269;-62
2023/12/09 04:10:18;;;;;;;45.70;29.50;;;;;;;2.87;100.00;99904.13;5042579;28;20223;-63
2023/12/09 04:12:44;;;;;;;48.93;32.20;;;;;;;2.87;100.00;99907.47;5064777;28;20192;-63
2023/12/09 04:15:13;;;;;;;48.47;30.80;;;;;;;2.83;100.00;99897.44;5055514;28;20635;-63
2023/12/09 04:17:38;;;;;;;49.70;31.40;;;;;;;2.99;100.00;99905.50;5061246;28;20286;-63
2023/12/09 04:20:07;;;;;;;45.77;30.43;;;;;;;3.09;100.00;99904.41;5045326;28;20593;-63
2023/12/09 04:22:32;;;;;;;44.90;29.27;;;;;;;3.11;100.00;99896.72;5070185;28;20197;-63
2023/12/09 04:24:57;;;;;;;48.97;32.57;;;;;;;3.16;100.00;99905.91;5055786;28;20177;-64
2023/12/09 04:27:22;;;;;;;51.73;31.37;;;;;;;3.22;100.00;99895.56;5055533;28;20667;-63
2023/12/09 04:29:49;;;;;;;47.20;30.67;;;;;;;3.05;100.00;99892.63;5056331;28;20182;-63
2023/12/09 04:32:14;;;;;;;50.80;31.87;;;;;;;3.04;100.00;99904.50;5040588;28;20248;-63
2023/12/09 04:34:39;;;;;;;48.60;31.47;;;;;;;3.27;100.00;99902.22;5056242;28;20212;-64
2023/12/09 04:37:05;;;;;;;45.33;31.53;;;;;;;3.23;100.00;99896.38;5055407;28;20194;-63
2023/12/09 04:39:30;;;;;;;44.43;30.60;;;;;;;3.25;100.00;99896.34;5056199;28;20177;-63
2023/12/09 04:41:55;;;;;;;46.97;30.60;;;;;;;3.35;100.00;99888.41;5059665;28;20703;-63
2023/12/09 04:44:23;;;;;;;45.77;31.20;;;;;;;3.37;100.00;99870.56;5057033;28;20275;-64
2023/12/09 04:46:48;;;;;;;47.83;30.07;;;;;;;3.38;100.00;99880.69;5054852;28;20248;-63
2023/12/09 04:49:13;;;;;;;46.97;30.73;;;;;;;3.31;100.00;99874.13;5056020;28;20585;-63
2023/12/09 04:51:39;;;;;;;52.87;31.47;;;;;;;2.96;100.00;99881.00;5057106;28;20225;-64
2023/12/09 04:54:04;;;;;;;46.43;31.20;;;;;;;3.17;100.00;99871.13;5057939;28;20182;-63
2023/12/09 04:56:29;;;;;;;39.47;28.10;;;;;;;3.05;100.00;99874.84;5064630;28;20183;-62
2023/12/09 04:58:55;;;;;;;47.30;29.93;;;;;;;3.40;100.00;99873.03;5074434;28;20223;-63
2023/12/09 05:01:20;;;;;;;41.47;28.37;;;;;;;3.50;100.00;99869.34;5064246;28;20496;-63
2023/12/09 05:03:47;;;;;;;45.67;30.53;;;;;;;3.65;100.00;99867.25;5060108;28;20177;-64
2023/12/09 05:06:12;;;;;;;45.70;30.17;;;;;;;3.68;100.00;99855.28;5054948;28;20254;-64
2023/12/09 05:08:39;;;;;;;39.30;29.13;;;;;;;3.41;100.00;99866.25;5054522;28;20637;-64
2023/12/09 05:11:04;;;;;;;47.53;30.23;;;;;;;3.45;100.00;99862.72;5053039;28;20227;-64
2023/12/09 05:13:29;;;;;;;45.30;29.73;;;;;;;3.48;100.00;99850.75;5062012;28;20542;-63
2023/12/09 05:15:55;;;;;;;42.20;28.17;;;;;;;3.36;100.00;99848.56;5055177;28;20266;-65
2023/12/09 05:18:20;;;;;;;48.57;31.07;;;;;;;3.36;100.00;99846.88;5055712;28;20228;-64
2023/12/09 05:20:45;;;;;;;42.53;28.67;;;;;;;3.41;100.00;99851.81;5050929;28;20684;-63
2023/12/09 05:23:10;;;;;;;47.77;30.83;;;;;;;3.48;100.00;99845.66;5065294;28;20276;-64
2023/12/09 05:25:36;;;;;;;49.87;31.73;;;;;;;3.50;100.00;99843.91;5055831;28;20177;-64
2023/12/09 05:28:01;;;;;;;48.20;31.60;;;;;;;3.32;100.00;99834.28;5056558;28;20197;-64
2023/12/09 05:30:26;;;;;;;50.50;32.00;;;;;;;3.33;100.00;99838.50;5048294;28;20727;-64
2023/12/09 05:32:51;;;;;;;48.47;31.93;;;;;;;3.31;100.00;99833.47;5067950;28;20178;-65
2023/12/09 05:35:17;;;;;;;50.60;31.37;;;;;;;3.24;100.00;99826.88;5055901;28;20192;-64
2023/12/09 05:37:42;;;;;;;44.17;28.90;;;;;;;3.00;100.00;99828.38;5054219;28;20200;-65
2023/12/09 05:40:08;;;;;;;45.40;31.73;;;;;;;3.00;100.00;99826.69;5045610;28;20613;-64
2023/12/09 05:42:33;;;;;;;45.63;30.07;;;;;;;3.10;100.00;99824.75;5069086;28;20227;-64
2023/12/09 05:44:58;;;;;;;45.23;30.43;;;;;;;3.16;100.00;99823.72;5055339;28;20178;-64
2023/12/09 05:47:24;;;;;;;41.57;28.77;;;;;;;3.20;100.00;99821.06;5054446;28;20172;-65
2023/12/09 05:49:50;;;;;;;46.67;29.50;;;;;;;3.16;100.00;99818.63;5055235;28;20192;-65
2023/12/09 05:52:15;;;;;;;41.13;28.90;;;;;;;2.99;100.00;99812.31;5058931;28;20227;-65
2023/12/09 05:54:40;;;;;;;47.63;31.67;;;;;;;3.02;100.00;99814.75;5053706;28;20173;-65
2023/12/09 05:57:06;;;;;;;43.70;28.07;;;;;;;3.10;100.00;99813.72;5053292;28;20255;-65
2023/12/09 05:59:31;;;;;;;43.17;28.90;;;;;;;3.03;100.00;99801.19;5053500;28;20205;-65
2023/12/09 06:01:56;;;;;;;49.47;28.23;;;;;;;3.02;100.00;99811.41;5057783;28;20235;-64
2023/12/09 06:04:21;;;;;;;40.93;28.33;;;;;;;2.78;100.00;99802.72;5054418;28;20174;-64
2023/12/09 06:06:47;;;;;;;45.37;28.43;;;;;;;2.60;100.00;99807.44;5052879;28;20628;-64
2023/12/09 06:09:13;;;;;;;49.37;30.03;;;;;;;2.84;100.00;99805.97;5061501;28;20216;-64
2023/12/09 06:11:38;;;;;;;44.90;30.03;;;;;;;3.03;100.00;99813.91;5060648;28;20235;-65
2023/12/09 06:14:03;;;;;;;46.60;30.20;;;;;;;3.05;100.00;99806.22;5064455;28;20189;-64
2023/12/09 06:16:28;;;;;;;42.80;28.13;;;;;;;2.76;100.00;99805.31;5058286;28;20644;-65
2023/12/09 06:18:54;;;;;;;45.97;29.97;;;;;;;2.97;100.00;99798.81;5053560;28;20245;-65
2023/12/09 06:21:23;;;;;;;43.60;29.77;;;;;;;3.03;100.00;99787.66;5052969;28;20225;-65
2023/12/09 06:23:49;;;;;;;46.83;29.70;;;;;;;3.07;100.00;99795.13;5058155;28;20634;-64
2023/12/09 06:26:14;;;;;;;44.93;28.73;;;;;;;2.88;100.00;99797.38;5054204;28;20173;-65
2023/12/09 06:28:39;;;;;;;50.70;29.33;;;;;;;2.91;100.00;99788.81;5051589;28;20219;-65
2023/12/09 06:31:05;;;;;;;44.63;29.43;;;;;;;2.83;100.00;99791.59;5051303;28;20316;-65
2023/12/09 06:33:30;;;;;;;41.27;28.37;;;;;;;2.97;100.00;99801.34;5060847;28;20173;-65
2023/12/09 06:35:56;;;;;;;45.93;28.60;;;;;;;3.05;100.00;99799.44;5053910;28;20200;-65
2023/12/09 06:38:21;;;;;;;43.30;28.37;;;;;;;2.87;100.00;99800.78;5052541;28;20201;-65
2023/12/09 06:40:47;;;;;;;41.33;28.80;;;;;;;2.87;100.00;99800.78;5047219;28;20240;-65
2023/12/09 06:43:12;;;;;;;44.20;30.03;;;;;;;3.10;100.00;99801.88;5069526;28;20196;-66
2023/12/09 06:45:37;;;;;;;47.87;31.10;;;;;;;2.94;100.00;99786.22;5067348;28;20544;-65
2023/12/09 06:48:03;;;;;;;43.33;28.70;;;;;;;2.96;100.00;99779.38;5064243;28;20287;-66
2023/12/09 06:50:28;;;;;;;43.40;29.90;;;;;;;2.77;100.00;99783.28;5051455;28;20227;-65
2023/12/09 06:52:53;;;;;;;43.77;28.93;;;;;;;2.78;100.00;99775.66;5065396;28;20531;-65
2023/12/09 06:55:18;;;;;;;40.23;27.33;;;;;;;2.93;100.00;99776.06;5053031;28;20204;-65
2023/12/09 06:57:44;;;;;;;39.87;26.90;;;;;;;2.85;100.00;99792.38;5052263;28;20170;-65
2023/12/09 07:00:10;;;;;;;47.50;30.93;;;;;;;3.11;100.00;99792.53;5041639;28;20585;-65
2023/12/09 07:02:36;;;;;;;43.97;28.97;;;;;;;3.29;100.00;99796.25;5066626;28;20574;-64
2023/12/09 07:05:01;;;;;;;44.53;28.97;;;;;;;3.14;100.00;99794.97;5052962;28;20185;-64
2023/12/09 07:07:26;;;;;;;48.00;30.30;;;;;;;3.07;100.00;99789.22;5065213;28;20300;-64
2023/12/09 07:09:51;;;;;;;43.07;30.00;;;;;;;3.32;100.00;99801.22;5052327;28;20206;-65
2023/12/09 07:12:16;;;;;;;47.13;29.83;;;;;;;3.40;100.00;99796.75;5042396;28;20229;-64
2023/12/09 07:14:42;;;;;;;45.30;30.37;;;;;;;3.49;100.00;99801.56;5046316;28;20188;-64
2023/12/09 07:17:07;;;;;;;41.83;29.07;;;;;;;3.57;100.00;99800.50;5052802;28;20266;-63
2023/12/09 07:19:32;;;;;;;44.97;29.70;;;;;;;3.66;100.00;99801.06;5052021;28;20214;-63
2023/12/09 07:21:58;;;;;;;44.57;27.17;;;;;;;3.78;100.00;99806.63;5052637;28;20233;-62
2023/12/09 07:24:23;;;;;;;45.60;29.50;;;;;;;3.84;100.00;99793.72;5056679;28;20213;-62
2023/12/09 07:26:48;;;;;;;45.63;30.37;;;;;;;3.59;100.00;99784.31;5058390;28;20220;-63
2023/12/09 07:29:13;;;;;;;41.57;27.77;;;;;;;3.61;100.00;99789.34;5055517;28;20205;-63
2023/12/09 07:31:39;;;;;;;46.60;29.40;;;;;;;3.42;100.00;99787.34;5057512;28;20675;-64
2023/12/09 07:34:04;;;;;;;44.50;29.43;;;;;;;3.42;100.00;99784.00;5054809;28;20185;-63
2023/12/09 07:36:29;;;;;;;42.03;28.77;;;;;;;3.38;100.00;99791.69;5051940;28;20177;-65
2023/12/09 07:38:55;;;;;;;43.97;30.37;;;;;;;3.59;100.00;99793.66;5051164;28;20190;-66
2023/12/09 07:41:20;;;;;;;45.63;29.43;;;;;;;3.71;100.00;99783.94;5043762;28;20580;-63
2023/12/09 07:43:45;;;;;;;42.50;29.03;;;;;;;3.79;100.00;99781.13;5070015;28;20196;-63
2023/12/09 07:46:10;;;;;;;42.97;27.70;;;;;;;3.82;100.00;99782.75;5071357;28;20620;-64
2023/12/09 07:48:36;;;;;;;37.03;26.17;;;;;;;3.64;100.00;99782.44;5070533;28;20180;-63
2023/12/09 07:51:01;;;;;;;41.13;27.57;;;;;;;3.71;100.00;99775.47;5061468;28;20276;-63
2023/12/09 07:53:27;;;;;;;43.63;30.10;;;;;;;3.51;100.00;99771.84;5070958;28;20660;-62
2023/12/09 07:55:52;;;;;;;41.73;27.43;;;;;;;3.59;100.00;99784.31;5071035;28;20636;-62
2023/12/09 07:58:17;;;;;;;47.50;27.60;;;;;;;3.57;100.00;99768.25;5059935;28;20197;-62
2023/12/09 08:00:42;;;;;;;42.00;28.17;;;;;;;3.38;100.00;99773.09;5053622;28;20255;-62
2023/12/09 08:03:08;;;;;;;42.13;28.03;;;;;;;3.50;100.00;99765.09;5061153;28;20285;-61
2023/12/09 08:05:34;;;;;;;40.77;28.17;;;;;;;3.75;100.00;99769.41;5063102;28;20178;-61
2023/12/09 08:08:00;;;;;;;42.87;28.17;;;;;;;3.80;100.00;99759.91;5059090;28;20229;-61
2023/12/09 08:10:26;;;;;;;39.43;29.17;;;;;;;3.75;100.00;99753.31;5051088;28;20237;-63
2023/12/09 08:12:51;;;;;;;41.13;29.17;;;;;;;3.87;100.00;99745.28;5058543;28;20247;-63
2023/12/09 08:15:16;;;;;;;36.77;26.77;;;;;;;3.91;100.00;99754.47;5068604;28;20189;-62
2023/12/09 08:17:41;;;;;;;39.33;27.53;;;;;;;3.81;100.00;99760.75;5070374;28;20229;-63
2023/12/09 08:20:08;;;;;;;38.87;27.60;;;;;;;4.09;100.00;99755.56;5052975;28;20230;-62
2023/12/09 08:22:35;;;;;;;34.93;26.37;;;;;;;4.06;100.00;99737.88;5065185;28;20206;-63
2023/12/09 08:25:00;;;;;;;39.23;27.27;;;;;;;4.10;100.00;99741.97;5067924;28;20584;-63
2023/12/09 08:27:25;;;;;;;38.90;27.13;;;;;;;4.36;100.00;99742.81;5043567;28;20212;-63
2023/12/09 08:29:51;;;;;;;38.00;26.30;;;;;;;4.60;100.00;99733.47;5066165;28;20631;-63
2023/12/09 08:32:16;;;;;;;40.30;28.33;;;;;;;4.56;100.00;99720.91;5051830;27;20256;-63
2023/12/09 08:34:41;;;;;;;41.27;28.00;;;;;;;4.63;100.00;99720.63;5065586;28;20180;-62
2023/12/09 08:37:07;;;;;;;41.37;28.23;;;;;;;4.55;100.00;99712.41;5066414;28;20218;-63
2023/12/09 08:39:32;;;;;;;40.63;27.93;;;;;;;4.50;100.00;99706.66;5065446;28;20213;-63
2023/12/09 08:41:57;;;;;;;44.97;30.13;;;;;;;4.44;100.00;99711.97;5072242;28;20227;-63
2023/12/09 08:44:23;;;;;;;39.60;28.13;;;;;;;4.48;100.00;99698.25;5067687;28;20180;-63
2023/12/09 08:46:48;;;;;;;42.93;27.67;;;;;;;4.23;100.00;99696.56;5068315;28;20535;-63
2023/12/09 08:49:13;;;;;;;38.17;27.60;;;;;;;4.26;100.00;99688.81;5066781;28;20195;-63
2023/12/09 08:51:45;;;;;;;36.53;26.20;;;;;;;4.63;100.00;99684.94;5050083;28;20528;-61
2023/12/09 08:54:10;;;;;;;35.67;25.97;;;;;;;4.56;100.00;99678.41;5070497;28;20279;-62
2023/12/09 08:56:36;;;;;;;32.27;24.97;;;;;;;4.63;100.00;99669.66;5070018;28;20698;-63
2023/12/09 08:59:01;;;;;;;35.03;24.90;;;;;;;4.76;100.00;99664.13;5070678;28;20225;-63
2023/12/09 09:01:26;;;;;;;36.00;25.80;;;;;;;4.65;100.00;99670.44;5071432;28;20649;-63
2023/12/09 09:03:51;;;;;;;40.87;26.30;;;;;;;5.12;100.00;99674.63;5076331;28;20183;-62
2023/12/09 09:06:17;;;;;;;35.73;25.13;;;;;;;5.23;100.00;99666.56;5074207;28;20185;-63
2023/12/09 09:08:43;;;;;;;34.57;22.53;;;;;;;5.09;100.00;99669.66;5073104;28;20171;-62
2023/12/09 09:11:09;;;;;;;29.87;21.57;;;;;;;5.22;100.00;99666.63;5065803;28;20238;-62
2023/12/09 09:13:35;;;;;;;24.97;16.43;;;;;;;5.14;100.00;99660.09;5080821;28;20181;-62
2023/12/09 09:16:00;;;;;;;23.13;16.47;;;;;;;5.19;100.00;99664.19;5074311;28;20245;-64
2023/12/09 09:18:25;;;;;;;23.30;15.50;;;;;;;5.29;100.00;99666.31;5072856;28;20578;-62
2023/12/09 09:20:50;;;;;;;19.83;15.10;;;;;;;5.46;100.00;99658.00;5070307;28;20232;-63
2023/12/09 09:23:16;;;;;;;17.73;14.53;;;;;;;5.52;100.00;99654.38;5083013;28;20713;-64
2023/12/09 09:25:41;;;;;;;22.17;14.70;;;;;;;5.66;100.00;99651.25;5073839;28;20250;-64
2023/12/09 09:28:06;;;;;;;23.73;15.97;;;;;;;5.55;100.00;99658.53;5073404;28;20524;-63
2023/12/09 09:30:32;;;;;;;20.67;14.83;;;;;;;5.30;100.00;99650.13;5067381;28;20303;-62
2023/12/09 09:32:57;;;;;;;21.17;14.80;;;;;;;5.33;100.00;99652.56;5068376;28;20185;-62
2023/12/09 09:35:24;;;;;;;17.37;14.57;;;;;;;5.44;100.00;99651.28;5054699;28;20193;-62
2023/12/09 09:37:49;;;;;;;17.20;13.63;;;;;;;5.31;100.00;99643.31;5054421;28;20721;-63
2023/12/09 09:40:14;;;;;;;19.53;14.40;;;;;;;5.28;100.00;99643.44;5045949;28;20216;-62
2023/12/09 09:42:44;;;;;;;14.47;12.87;;;;;;;5.21;100.00;99642.00;5067151;28;20695;-62
2023/12/09 09:45:23;;;;;;;22.93;14.17;;;;;;;5.37;100.00;99648.16;5055003;28;20185;-63
2023/12/09 09:47:49;;;;;;;17.37;12.93;;;;;;;5.51;100.00;99668.00;5066341;28;20702;-63
2023/12/09 09:50:23;;;;;;;16.23;12.90;;;;;;;5.68;100.00;99658.84;5051614;28;20235;-63
2023/12/09 09:52:49;;;;;;;17.13;13.37;;;;;;;5.81;100.00;99654.88;5066165;28;20259;-63
2023/12/09 09:55:19;;;;;;;17.33;12.80;;;;;;;5.89;100.00;99657.09;5053842;28;20200;-63
2023/12/09 09:57:45;;;;;;;16.37;12.00;;;;;;;6.01;100.00;99653.25;5041134;28;20178;-64
2023/12/09 10:00:14;;;;;;;17.20;11.77;;;;;;;6.19;100.00;99654.16;5044834;28;20182;-63
2023/12/09 10:02:48;;;;;;;15.40;10.77;;;;;;;6.38;100.00;99661.88;5067194;28;20189;-63
2023/12/09 10:05:16;;;;;;;17.13;11.27;;;;;;;6.48;100.00;99647.78;5053867;28;20297;-63
2023/12/09 10:07:42;;;;;;;13.80;10.10;;;;;;;6.85;100.00;99624.84;5062044;28;20185;-63
2023/12/09 10:10:08;;;;;;;12.83;9.77;;;;;;;7.15;100.00;99617.41;5061523;28;20191;-63
2023/12/09 10:12:36;;;;;;;13.60;9.87;;;;;;;7.40;100.00;99608.56;5067694;28;20189;-63
2023/12/09 10:15:03;;;;;;;12.50;9.00;;;;;;;7.73;100.00;99588.13;5052222;28;20180;-62
2023/12/09 10:17:30;;;;;;;12.80;9.70;;;;;;;7.56;100.00;99588.16;5052953;28;20229;-62
2023/12/09 10:19:56;;;;;;;13.23;8.83;;;;;;;7.49;100.00;99571.44;5056126;28;20585;-62
2023/12/09 10:22:22;;;;;;;12.83;10.07;;;;;;;7.30;100.00;99571.53;5078390;28;20227;-63
2023/12/09 10:24:51;;;;;;;13.50;10.00;;;;;;;7.26;100.00;99563.19;5072204;28;20203;-63
2023/12/09 10:27:24;;;;;;;15.57;10.13;;;;;;;7.29;100.00;99557.91;5072269;28;20180;-62
2023/12/09 10:29:51;;;;;;;15.07;9.80;;;;;;;7.31;100.00;99560.41;5072233;28;20289;-62
2023/12/09 10:32:16;;;;;;;14.83;10.60;;;;;;;7.53;100.00;99565.25;5078093;28;20234;-63
2023/12/09 10:34:42;;;;;;;17.87;11.57;;;;;;;7.46;100.00;99558.81;5067892;28;20177;-62
2023/12/09 10:37:08;;;;;;;18.83;12.07;;;;;;;7.69;100.00;99539.69;5052677;28;20251;-63
2023/12/09 10:39:34;;;;;;;12.63;9.90;;;;;;;7.51;100.00;99537.19;5052926;28;20212;-62
2023/12/09 10:41:59;;;;;;;13.87;11.07;;;;;;;7.63;100.00;99522.09;5044487;28;20220;-63
2023/12/09 10:44:24;;;;;;;14.13;11.63;;;;;;;7.29;100.00;99519.53;5070368;28;20187;-62
2023/12/09 10:46:50;;;;;;;12.63;10.87;;;;;;;7.05;100.00;99509.63;5072129;28;20188;-62
2023/12/09 10:49:15;;;;;;;15.77;11.87;;;;;;;6.77;100.00;99492.25;5068034;28;20208;-61
2023/12/09 10:51:40;;;;;;;12.57;10.07;;;;;;;6.66;100.00;99479.16;5055162;28;20282;-62
2023/12/09 10:54:05;;;;;;;17.47;11.57;;;;;;;6.72;100.00;99466.06;5055355;28;20177;-63
2023/12/09 10:56:31;;;;;;;18.33;11.60;;;;;;;6.68;100.00;99444.94;5062236;28;20189;-61
2023/12/09 10:58:56;;;;;;;17.17;10.47;;;;;;;6.66;100.00;99433.16;5055635;28;20181;-62
2023/12/09 11:01:22;;;;;;;17.50;10.47;;;;;;;6.62;100.00;99425.66;5044062;28;20306;-63
2023/12/09 11:03:48;;;;;;;12.27;10.13;;;;;;;6.37;100.00;99420.88;5054816;28;20168;-62
2023/12/09 11:06:15;;;;;;;15.37;10.57;;;;;;;6.29;100.00;99416.16;5072286;28;20180;-62
2023/12/09 11:08:42;;;;;;;14.10;10.27;;;;;;;6.26;100.00;99423.97;5067534;28;20174;-62
2023/12/09 11:11:07;;;;;;;18.17;10.60;;;;;;;6.09;100.00;99419.66;5050774;28;20695;-61